Terminal Aerodrome Forecast
Issued by NWS Kansas City/Pleasant Hill, MO

Home | Current Version | Previous Version | Text Only | Print | Product List | Glossary On
Versions: 1 2 3 4 5 6 7 8 9 10 11 12 13 14 15 16 17
000
FTUS43 KEAX 150939 AAA
TAFMCI
TAF AMD
KMCI 150939Z 1510/1606 18004KT P6SM SCT250
      TEMPO 1511/1513 5SM BR
     FM151300 17007KT P6SM SCT040=

USA.gov is the U.S. government's official web portal to all federal, state and local government web resources and services.